createdAt,value
2019-03-19T00:00:52.037Z,0
2019-03-19T00:01:52.000Z,0
2019-03-19T00:02:51.980Z,0
2019-03-19T00:03:51.947Z,0
2019-03-19T00:04:51.910Z,0
2019-03-19T00:05:51.886Z,0
2019-03-19T00:06:51.852Z,0
2019-03-19T00:07:51.821Z,0
2019-03-19T00:08:51.788Z,0
2019-03-19T00:09:51.771Z,0
2019-03-19T00:10:51.734Z,0
2019-03-19T00:11:51.693Z,0
2019-03-19T00:12:51.962Z,0
2019-03-19T00:13:51.627Z,0
2019-03-19T00:14:51.589Z,0
2019-03-19T00:15:51.557Z,0
2019-03-19T00:16:51.532Z,0
2019-03-19T00:17:51.508Z,0
2019-03-19T00:18:51.463Z,0
2019-03-19T00:19:51.441Z,0
2019-03-19T00:20:51.408Z,0
2019-03-19T00:21:51.376Z,0
2019-03-19T00:22:51.336Z,0
2019-03-19T00:23:51.308Z,0
2019-03-19T00:24:51.283Z,0
2019-03-19T00:25:53.093Z,0
2019-03-19T00:26:51.235Z,0
2019-03-19T00:27:50.994Z,0
2019-03-19T00:28:51.151Z,0
2019-03-19T00:29:51.120Z,0
2019-03-19T00:30:50.848Z,0
2019-03-19T00:31:51.049Z,0
2019-03-19T00:32:51.028Z,0
2019-03-19T00:33:50.992Z,0
2019-03-19T00:34:50.964Z,0
2019-03-19T00:35:50.929Z,0
2019-03-19T00:36:50.901Z,0
2019-03-19T00:37:50.864Z,0
2019-03-19T00:38:50.885Z,0
2019-03-19T00:39:50.807Z,0
2019-03-19T00:40:50.771Z,0
2019-03-19T00:41:50.742Z,0
2019-03-19T00:42:50.711Z,0
2019-03-19T00:43:50.678Z,0
2019-03-19T00:44:50.642Z,0
2019-03-19T00:45:50.608Z,0
2019-03-19T00:46:50.574Z,0
2019-03-19T00:47:50.606Z,0
2019-03-19T00:48:50.512Z,0
2019-03-19T00:49:50.498Z,0
2019-03-19T00:50:50.452Z,0
2019-03-19T00:51:50.414Z,0
2019-03-19T00:52:50.440Z,0
2019-03-19T00:53:50.365Z,0
2019-03-19T00:54:50.322Z,0
2019-03-19T00:55:50.620Z,0
2019-03-19T00:56:50.286Z,0
2019-03-19T00:57:50.225Z,0
2019-03-19T00:58:50.195Z,0
2019-03-19T00:59:50.174Z,0
2019-03-19T01:00:50.137Z,0
2019-03-19T01:01:50.140Z,0
2019-03-19T01:02:50.077Z,0
2019-03-19T01:03:50.031Z,0
2019-03-19T01:04:50.023Z,0
2019-03-19T01:05:49.980Z,0
2019-03-19T01:06:49.963Z,0
2019-03-19T01:07:49.909Z,0
2019-03-19T01:08:49.873Z,0
2019-03-19T01:09:49.843Z,0
2019-03-19T01:10:49.805Z,0
2019-03-19T01:11:49.782Z,0
2019-03-19T01:12:49.756Z,0
2019-03-19T01:13:49.737Z,0
2019-03-19T01:14:49.678Z,0
2019-03-19T01:15:49.650Z,0
2019-03-19T01:16:49.631Z,0
2019-03-19T01:17:49.353Z,0
2019-03-19T01:18:49.559Z,0
2019-03-19T01:19:49.515Z,0
2019-03-19T01:20:49.491Z,0
2019-03-19T01:21:49.459Z,0
2019-03-19T01:22:49.431Z,0
2019-03-19T01:23:49.410Z,0
2019-03-19T01:24:49.358Z,0
2019-03-19T01:26:04.868Z,0
2019-03-19T01:26:49.294Z,0
2019-03-19T01:27:49.267Z,0
2019-03-19T01:28:49.231Z,0
2019-03-19T01:29:49.205Z,0
2019-03-19T01:30:48.925Z,0
2019-03-19T01:31:49.133Z,0
2019-03-19T01:32:49.105Z,0
2019-03-19T01:33:49.067Z,0
2019-03-19T01:34:49.037Z,0
2019-03-19T01:35:49.001Z,0
2019-03-19T01:36:48.968Z,0
2019-03-19T01:37:48.935Z,0
2019-03-19T01:38:48.916Z,0
2019-03-19T01:39:48.899Z,0
2019-03-19T01:40:48.842Z,0
2019-03-19T01:41:48.812Z,0
2019-03-19T01:42:48.793Z,0
2019-03-19T01:43:48.748Z,0
2019-03-19T01:44:48.718Z,0
2019-03-19T01:45:48.688Z,0
2019-03-19T01:46:48.644Z,0
2019-03-19T01:47:48.611Z,0
2019-03-19T01:48:48.591Z,0
2019-03-19T01:49:48.560Z,0
2019-03-19T01:50:48.533Z,0
2019-03-19T01:51:48.483Z,0
2019-03-19T01:52:48.451Z,0
2019-03-19T01:53:48.418Z,0
2019-03-19T01:54:48.400Z,0
2019-03-19T01:55:48.367Z,0
2019-03-19T01:56:48.322Z,0
2019-03-19T01:57:48.299Z,0
2019-03-19T01:58:48.255Z,0
2019-03-19T01:59:48.239Z,0
2019-03-19T02:00:48.228Z,0
2019-03-19T02:01:48.176Z,0
2019-03-19T02:02:48.150Z,0
2019-03-19T02:03:48.097Z,0
2019-03-19T02:04:48.067Z,0
2019-03-19T02:05:48.047Z,0
2019-03-19T02:06:47.993Z,0
2019-03-19T02:07:47.966Z,0
2019-03-19T02:08:47.927Z,0
2019-03-19T02:09:47.897Z,0
2019-03-19T02:10:47.640Z,0
2019-03-19T02:11:47.819Z,0
2019-03-19T02:12:47.848Z,0
2019-03-19T02:13:47.540Z,0
2019-03-19T02:14:47.744Z,0
2019-03-19T02:15:47.716Z,0
2019-03-19T02:16:47.671Z,0
2019-03-19T02:17:47.672Z,0
2019-03-19T02:18:47.621Z,0
2019-03-19T02:19:47.582Z,0
2019-03-19T02:20:47.551Z,0
2019-03-19T02:21:47.527Z,0
2019-03-19T02:22:47.486Z,0
2019-03-19T02:23:47.457Z,0
2019-03-19T02:24:47.417Z,0
2019-03-19T02:25:47.389Z,0
2019-03-19T02:26:47.353Z,0
2019-03-19T02:27:47.317Z,0
2019-03-19T02:28:47.292Z,0
2019-03-19T02:29:47.256Z,0
2019-03-19T02:30:47.252Z,0
2019-03-19T02:31:47.238Z,0
2019-03-19T02:32:47.329Z,0
2019-03-19T02:33:47.132Z,0
2019-03-19T02:34:47.174Z,0
2019-03-19T02:35:47.067Z,0
2019-03-19T02:36:47.069Z,0
2019-03-19T02:37:47.043Z,0
2019-03-19T02:38:46.490Z,0
2019-03-19T02:39:46.966Z,0
2019-03-19T02:40:46.913Z,0
2019-03-19T02:41:46.641Z,0
2019-03-19T02:42:46.851Z,0
2019-03-19T02:43:46.919Z,0
2019-03-19T02:44:46.864Z,0
2019-03-19T02:45:46.751Z,0
2019-03-19T02:46:46.703Z,0
2019-03-19T02:47:46.764Z,0
2019-03-19T02:48:46.662Z,0
2019-03-19T02:49:46.594Z,0
2019-03-19T02:50:46.575Z,0
2019-03-19T02:51:46.534Z,0
2019-03-19T02:52:46.540Z,0
2019-03-19T02:53:46.481Z,0
2019-03-19T02:54:46.438Z,0
2019-03-19T02:55:46.416Z,0
2019-03-19T02:56:46.128Z,0
2019-03-19T02:57:46.421Z,0
2019-03-19T02:58:46.314Z,0
2019-03-19T02:59:46.285Z,0
2019-03-19T03:00:46.312Z,0
2019-03-19T03:01:46.234Z,0
2019-03-19T03:02:46.193Z,0
2019-03-19T03:03:46.187Z,0
2019-03-19T03:04:45.875Z,0
2019-03-19T03:05:46.192Z,0
2019-03-19T03:06:46.074Z,0
2019-03-19T03:07:46.027Z,0
2019-03-19T03:08:46.002Z,0
2019-03-19T03:09:45.979Z,0
2019-03-19T03:10:45.922Z,0
2019-03-19T03:11:45.891Z,0
2019-03-19T03:12:45.886Z,0
2019-03-19T03:13:45.816Z,0
2019-03-19T03:14:48.599Z,0
2019-03-19T03:15:45.763Z,0
2019-03-19T03:16:45.736Z,0
2019-03-19T03:17:45.681Z,0
2019-03-19T03:18:45.657Z,0
2019-03-19T03:19:45.626Z,0
2019-03-19T03:20:45.623Z,0
2019-03-19T03:21:45.605Z,0
2019-03-19T03:22:45.605Z,0
2019-03-19T03:23:45.490Z,0
2019-03-19T03:24:45.459Z,0
2019-03-19T03:25:45.282Z,0
2019-03-19T03:26:56.421Z,0
2019-03-19T03:27:45.415Z,0
2019-03-19T03:28:45.348Z,0
2019-03-19T03:29:45.325Z,0
2019-03-19T03:30:45.297Z,0
2019-03-19T03:31:45.248Z,0
2019-03-19T03:32:45.291Z,0
2019-03-19T03:33:45.157Z,0
2019-03-19T03:34:45.185Z,0
2019-03-19T03:35:45.111Z,0
2019-03-19T03:36:45.089Z,0
2019-03-19T03:37:45.067Z,0
2019-03-19T03:38:44.987Z,0
2019-03-19T03:39:44.968Z,0
2019-03-19T03:40:44.753Z,0
2019-03-19T03:41:44.898Z,0
2019-03-19T03:42:47.938Z,0
2019-03-19T03:43:44.841Z,0
2019-03-19T03:44:44.823Z,0
2019-03-19T03:45:44.812Z,0
2019-03-19T03:46:44.738Z,0
2019-03-19T03:47:44.693Z,0
2019-03-19T03:48:44.670Z,0
2019-03-19T03:49:44.639Z,0
2019-03-19T03:50:44.601Z,0
2019-03-19T03:51:44.582Z,0
2019-03-19T03:52:44.559Z,0
2019-03-19T03:53:44.558Z,0
2019-03-19T03:54:44.494Z,0
2019-03-19T03:55:44.441Z,0
2019-03-19T03:56:44.405Z,0
2019-03-19T03:57:44.375Z,0
2019-03-19T03:58:44.337Z,0
2019-03-19T03:59:44.320Z,0
2019-03-19T04:00:44.281Z,0
2019-03-19T04:01:44.285Z,0
2019-03-19T04:02:47.220Z,0
2019-03-19T04:03:44.190Z,0
2019-03-19T04:04:44.155Z,0
2019-03-19T04:05:44.109Z,0
2019-03-19T04:06:44.069Z,0
2019-03-19T04:07:44.051Z,0
2019-03-19T04:08:44.013Z,0
2019-03-19T04:09:43.983Z,0
2019-03-19T04:10:43.933Z,0
2019-03-19T04:11:43.916Z,0
2019-03-19T04:12:43.907Z,0
2019-03-19T04:13:43.608Z,0
2019-03-19T04:14:46.434Z,0
2019-03-19T04:15:43.783Z,0
2019-03-19T04:16:43.747Z,0
2019-03-19T04:17:43.754Z,0
2019-03-19T04:18:43.737Z,0
2019-03-19T04:19:43.661Z,0
2019-03-19T04:20:43.620Z,0
2019-03-19T04:21:43.589Z,0
2019-03-19T04:22:43.327Z,0
2019-03-19T04:23:43.515Z,0
2019-03-19T04:24:43.488Z,0
2019-03-19T04:25:43.486Z,0
2019-03-19T04:26:43.447Z,0
2019-03-19T04:27:45.266Z,0
2019-03-19T04:28:43.360Z,0
2019-03-19T04:29:43.367Z,0
2019-03-19T04:30:43.286Z,0
2019-03-19T04:31:43.267Z,0
2019-03-19T04:32:43.314Z,0
2019-03-19T04:33:43.176Z,0
2019-03-19T04:34:43.148Z,0
2019-03-19T04:35:44.684Z,0
2019-03-19T04:36:43.077Z,0
2019-03-19T04:37:43.063Z,0
2019-03-19T04:38:43.021Z,0
2019-03-19T04:39:42.981Z,0
2019-03-19T04:40:42.950Z,0
2019-03-19T04:41:42.955Z,0
2019-03-19T04:42:42.891Z,0
2019-03-19T04:43:42.849Z,0
2019-03-19T04:44:42.861Z,0
2019-03-19T04:45:42.782Z,0
2019-03-19T04:46:42.742Z,0
2019-03-19T04:47:42.715Z,0
2019-03-19T04:48:42.685Z,0
2019-03-19T04:49:42.658Z,0
2019-03-19T04:50:42.616Z,0
2019-03-19T04:51:42.574Z,0
2019-03-19T04:52:42.583Z,0
2019-03-19T04:53:42.515Z,0
2019-03-19T04:54:42.491Z,0
2019-03-19T04:55:42.445Z,0
2019-03-19T04:56:42.416Z,0
2019-03-19T04:57:42.385Z,0
2019-03-19T04:58:42.346Z,0
2019-03-19T04:59:42.317Z,0
2019-03-19T05:00:42.291Z,0
2019-03-19T05:01:42.252Z,0
2019-03-19T05:02:42.268Z,0
2019-03-19T05:03:42.183Z,0
2019-03-19T05:04:42.148Z,0
2019-03-19T05:05:42.116Z,0
2019-03-19T05:06:42.093Z,0
2019-03-19T05:07:42.056Z,0
2019-03-19T05:08:42.023Z,0
2019-03-19T05:09:41.992Z,0
2019-03-19T05:10:42.014Z,0
2019-03-19T05:11:41.926Z,0
2019-03-19T05:12:41.963Z,0
2019-03-19T05:13:41.864Z,0
2019-03-19T05:14:41.827Z,0
2019-03-19T05:15:41.789Z,0
2019-03-19T05:16:41.612Z,0
2019-03-19T05:17:41.721Z,0
2019-03-19T05:18:41.690Z,0
2019-03-19T05:19:41.650Z,0
2019-03-19T05:20:41.619Z,0
2019-03-19T05:21:41.587Z,0
2019-03-19T05:22:41.559Z,0
2019-03-19T05:23:41.531Z,0
2019-03-19T05:24:41.494Z,5
2019-03-19T05:25:41.457Z,5
2019-03-19T05:26:41.435Z,5
2019-03-19T05:27:47.013Z,5
2019-03-19T05:28:41.372Z,5
2019-03-19T05:29:41.331Z,5
2019-03-19T05:30:41.305Z,10
2019-03-19T05:31:41.264Z,10
2019-03-19T05:32:41.228Z,10
2019-03-19T05:33:41.201Z,10
2019-03-19T05:34:41.173Z,15
2019-03-19T05:35:41.173Z,15
2019-03-19T05:36:40.875Z,15
2019-03-19T05:37:41.103Z,20
2019-03-19T05:38:40.811Z,20
2019-03-19T05:39:40.997Z,20
2019-03-19T05:40:40.962Z,25
2019-03-19T05:41:40.944Z,25
2019-03-19T05:42:40.912Z,30
2019-03-19T05:43:40.871Z,30
2019-03-19T05:44:40.829Z,35
2019-03-19T05:45:40.804Z,35
2019-03-19T05:46:40.766Z,40
2019-03-19T05:47:48.023Z,40
2019-03-19T05:48:40.714Z,45
2019-03-19T05:49:40.668Z,45
2019-03-19T05:50:40.632Z,50
2019-03-19T05:51:40.623Z,50
2019-03-19T05:52:40.561Z,55
2019-03-19T05:53:41.070Z,55
2019-03-19T05:54:41.875Z,60
2019-03-19T05:55:40.420Z,60
2019-03-19T05:56:40.645Z,65
2019-03-19T05:57:51.869Z,70
2019-03-19T05:58:40.366Z,70
2019-03-19T05:59:42.394Z,75
2019-03-19T06:00:40.329Z,75
2019-03-19T06:01:40.274Z,80
2019-03-19T06:02:40.235Z,85
2019-03-19T06:03:40.201Z,85
2019-03-19T06:04:40.179Z,90
2019-03-19T06:05:40.456Z,90
2019-03-19T06:06:40.105Z,95
2019-03-19T06:07:40.074Z,95
2019-03-19T06:08:40.037Z,100
2019-03-19T06:09:40.010Z,100
2019-03-19T06:10:39.983Z,105
2019-03-19T06:11:39.959Z,105
2019-03-19T06:12:39.920Z,110
2019-03-19T06:13:39.880Z,110
2019-03-19T06:14:39.845Z,115
2019-03-19T06:15:39.807Z,115
2019-03-19T06:16:39.808Z,120
2019-03-19T06:17:39.759Z,120
2019-03-19T06:18:44.427Z,125
2019-03-19T06:19:39.692Z,125
2019-03-19T06:20:39.656Z,130
2019-03-19T06:21:39.624Z,130
2019-03-19T06:22:39.605Z,135
2019-03-19T06:23:39.561Z,135
2019-03-19T06:24:39.526Z,140
2019-03-19T06:25:39.517Z,140
2019-03-19T06:26:39.459Z,145
2019-03-19T06:27:39.431Z,145
2019-03-19T06:28:40.211Z,150
2019-03-19T06:29:39.362Z,150
2019-03-19T06:30:39.331Z,155
2019-03-19T06:31:39.305Z,155
2019-03-19T06:32:39.266Z,155
2019-03-19T06:33:39.235Z,160
2019-03-19T06:34:39.251Z,160
2019-03-19T06:35:39.173Z,165
2019-03-19T06:36:39.138Z,165
2019-03-19T06:37:39.112Z,170
2019-03-19T06:38:39.068Z,170
2019-03-19T06:39:38.816Z,175
2019-03-19T06:40:39.019Z,175
2019-03-19T06:41:38.842Z,180
2019-03-19T06:42:38.941Z,180
2019-03-19T06:43:38.919Z,185
2019-03-19T06:44:38.876Z,185
2019-03-19T06:45:38.844Z,195
2019-03-19T06:46:40.017Z,190
2019-03-19T06:47:38.777Z,190
2019-03-19T06:48:38.749Z,195
2019-03-19T06:49:38.716Z,195
2019-03-19T06:50:49.266Z,195
2019-03-19T06:51:38.652Z,195
2019-03-19T06:52:38.629Z,200
2019-03-19T06:53:38.585Z,200
2019-03-19T06:54:38.323Z,200
2019-03-19T06:55:38.522Z,200
2019-03-19T06:56:38.504Z,210
2019-03-19T06:57:48.538Z,205
2019-03-19T06:58:38.427Z,205
2019-03-19T06:59:38.387Z,205
2019-03-19T07:00:38.374Z,205
2019-03-19T07:01:38.554Z,210
2019-03-19T07:02:38.294Z,210
2019-03-19T07:03:38.614Z,210
2019-03-19T07:04:38.284Z,215
2019-03-19T07:05:38.205Z,215
2019-03-19T07:06:38.894Z,215
2019-03-19T07:07:38.148Z,220
2019-03-19T07:08:38.110Z,220
2019-03-19T07:09:38.070Z,220
2019-03-19T07:10:38.064Z,220
2019-03-19T07:11:38.013Z,225
2019-03-19T07:12:37.984Z,225
2019-03-19T07:13:38.011Z,225
2019-03-19T07:14:37.935Z,230
2019-03-19T07:15:37.890Z,230
2019-03-19T07:16:37.867Z,230
2019-03-19T07:17:37.824Z,235
2019-03-19T07:18:38.667Z,235
2019-03-19T07:19:37.764Z,235
2019-03-19T07:20:37.731Z,235
2019-03-19T07:21:37.465Z,240
2019-03-19T07:22:37.675Z,240
2019-03-19T07:23:37.649Z,240
2019-03-19T07:24:37.607Z,240
2019-03-19T07:25:37.596Z,240
2019-03-19T07:26:37.548Z,240
2019-03-19T07:27:37.503Z,240
2019-03-19T07:28:37.486Z,245
2019-03-19T07:29:37.444Z,245
2019-03-19T07:30:37.419Z,245
2019-03-19T07:31:40.649Z,245
2019-03-19T07:32:37.379Z,250
2019-03-19T07:33:37.328Z,250
2019-03-19T07:34:37.285Z,250
2019-03-19T07:35:37.274Z,250
2019-03-19T07:36:37.229Z,255
2019-03-19T07:37:37.198Z,255
2019-03-19T07:38:40.526Z,255
2019-03-19T07:39:37.136Z,255
2019-03-19T07:40:37.100Z,255
2019-03-19T07:41:37.075Z,255
2019-03-19T07:42:37.052Z,260
2019-03-19T07:43:37.088Z,260
2019-03-19T07:44:36.989Z,260
2019-03-19T07:45:36.950Z,260
2019-03-19T07:46:36.927Z,260
2019-03-19T07:47:36.896Z,260
2019-03-19T07:48:36.858Z,260
2019-03-19T07:49:36.839Z,260
2019-03-19T07:50:36.806Z,265
2019-03-19T07:51:36.764Z,265
2019-03-19T07:52:36.754Z,265
2019-03-19T07:53:36.711Z,265
2019-03-19T07:54:36.676Z,265
2019-03-19T07:55:36.644Z,265
2019-03-19T07:56:36.637Z,270
2019-03-19T07:57:39.012Z,265
2019-03-19T07:58:52.692Z,265
2019-03-19T07:59:36.527Z,265
2019-03-19T08:00:40.313Z,270
2019-03-19T08:01:37.289Z,270
2019-03-19T08:02:36.431Z,270
2019-03-19T08:03:36.845Z,270
2019-03-19T08:04:36.183Z,275
2019-03-19T08:05:42.713Z,275
2019-03-19T08:06:37.497Z,275
2019-03-19T08:07:36.270Z,275
2019-03-19T08:08:36.244Z,275
2019-03-19T08:09:36.675Z,280
2019-03-19T08:10:36.189Z,280
2019-03-19T08:11:36.158Z,280
2019-03-19T08:12:38.390Z,280
2019-03-19T08:13:36.095Z,280
2019-03-19T08:14:36.429Z,280
2019-03-19T08:15:36.037Z,280
2019-03-19T08:16:36.980Z,285
2019-03-19T08:17:36.228Z,285
2019-03-19T08:18:38.571Z,285
2019-03-19T08:19:35.915Z,285
2019-03-19T08:20:35.890Z,285
2019-03-19T08:21:35.921Z,290
2019-03-19T08:22:35.582Z,290
2019-03-19T08:23:35.801Z,295
2019-03-19T08:24:35.759Z,295
2019-03-19T08:25:35.737Z,300
2019-03-19T08:26:35.758Z,300
2019-03-19T08:27:35.674Z,305
2019-03-19T08:28:36.220Z,305
2019-03-19T08:29:37.133Z,305
2019-03-19T08:30:35.601Z,305
2019-03-19T08:31:35.555Z,310
2019-03-19T08:32:35.520Z,315
2019-03-19T08:33:35.514Z,325
2019-03-19T08:34:36.354Z,320
2019-03-19T08:35:35.435Z,320
2019-03-19T08:36:35.407Z,315
2019-03-19T08:37:35.376Z,310
2019-03-19T08:38:35.991Z,310
2019-03-19T08:39:36.593Z,310
2019-03-19T08:40:35.295Z,305
2019-03-19T08:41:35.257Z,300
2019-03-19T08:42:35.227Z,310
2019-03-19T08:43:35.207Z,300
2019-03-19T08:44:37.436Z,315
2019-03-19T08:45:35.139Z,325
2019-03-19T08:46:35.106Z,350
2019-03-19T08:47:35.109Z,355
2019-03-19T08:48:37.270Z,340
2019-03-19T08:49:35.020Z,320
2019-03-19T08:50:34.784Z,305
2019-03-19T08:51:38.206Z,295
2019-03-19T08:52:35.854Z,285
2019-03-19T08:53:34.896Z,300
2019-03-19T08:54:35.079Z,310
2019-03-19T08:55:34.847Z,310
2019-03-19T08:56:34.874Z,315
2019-03-19T08:57:34.789Z,315
2019-03-19T08:58:34.763Z,315
2019-03-19T08:59:34.745Z,320
2019-03-19T09:00:34.895Z,325
2019-03-19T09:01:34.678Z,325
2019-03-19T09:02:34.645Z,330
2019-03-19T09:03:34.389Z,335
2019-03-19T09:04:34.704Z,345
2019-03-19T09:05:34.558Z,345
2019-03-19T09:06:34.524Z,350
2019-03-19T09:07:34.503Z,370
2019-03-19T09:08:34.466Z,385
2019-03-19T09:09:34.433Z,395
2019-03-19T09:10:34.433Z,410
2019-03-19T09:11:36.509Z,405
2019-03-19T09:12:34.351Z,405
2019-03-19T09:13:34.326Z,410
2019-03-19T09:14:34.292Z,415
2019-03-19T09:15:34.293Z,415
2019-03-19T09:16:34.244Z,420
2019-03-19T09:17:34.663Z,430
2019-03-19T09:18:34.180Z,425
2019-03-19T09:19:34.146Z,415
2019-03-19T09:20:34.123Z,400
2019-03-19T09:21:33.858Z,390
2019-03-19T09:22:39.090Z,390
2019-03-19T09:23:35.757Z,375
2019-03-19T09:24:34.020Z,365
2019-03-19T09:25:33.988Z,360
2019-03-19T09:26:33.951Z,370
2019-03-19T09:27:33.927Z,400
2019-03-19T09:28:33.908Z,430
2019-03-19T09:29:34.897Z,480
2019-03-19T09:30:33.846Z,495
2019-03-19T09:31:33.812Z,495
2019-03-19T09:32:33.783Z,485
2019-03-19T09:33:33.768Z,495
2019-03-19T09:34:33.746Z,510
2019-03-19T09:35:35.806Z,535
2019-03-19T09:36:33.718Z,545
2019-03-19T09:37:33.654Z,530
2019-03-19T09:38:33.620Z,485
2019-03-19T09:39:33.594Z,435
2019-03-19T09:40:33.570Z,445
2019-03-19T09:41:33.545Z,435
2019-03-19T09:42:33.510Z,445
2019-03-19T09:43:33.485Z,455
2019-03-19T09:44:33.454Z,465
2019-03-19T09:45:33.443Z,475
2019-03-19T09:46:33.408Z,485
2019-03-19T09:47:33.375Z,475
2019-03-19T09:48:35.344Z,495
2019-03-19T09:49:33.316Z,510
2019-03-19T09:50:33.299Z,535
2019-03-19T09:51:33.276Z,560
2019-03-19T09:52:34.287Z,555
2019-03-19T09:53:33.214Z,515
2019-03-19T09:54:34.681Z,495
2019-03-19T09:55:32.983Z,490
2019-03-19T09:56:33.134Z,500
2019-03-19T09:57:33.115Z,470
2019-03-19T09:58:33.099Z,440
2019-03-19T09:59:36.850Z,410
2019-03-19T10:00:33.034Z,395
2019-03-19T10:01:32.995Z,390
2019-03-19T10:02:33.274Z,390
2019-03-19T10:03:32.960Z,385
2019-03-19T10:04:32.920Z,365
2019-03-19T10:05:32.889Z,365
2019-03-19T10:06:32.874Z,360
2019-03-19T10:07:32.855Z,360
2019-03-19T10:08:32.577Z,360
2019-03-19T10:09:32.942Z,360
2019-03-19T10:10:33.112Z,365
2019-03-19T10:11:32.729Z,350
2019-03-19T10:12:32.699Z,350
2019-03-19T10:13:32.447Z,340
2019-03-19T10:14:32.428Z,330
2019-03-19T10:15:32.619Z,315
2019-03-19T10:16:32.600Z,310
2019-03-19T10:17:32.566Z,310
2019-03-19T10:18:32.313Z,310
2019-03-19T10:19:32.512Z,315
2019-03-19T10:20:32.886Z,325
2019-03-19T10:21:32.609Z,335
2019-03-19T10:22:32.635Z,355
2019-03-19T10:23:32.155Z,385
2019-03-19T10:24:32.401Z,395
2019-03-19T10:25:32.100Z,400
2019-03-19T10:26:32.316Z,400
2019-03-19T10:27:32.307Z,405
2019-03-19T10:28:32.256Z,410
2019-03-19T10:29:42.517Z,415
2019-03-19T10:30:31.979Z,430
2019-03-19T10:31:31.935Z,455
2019-03-19T10:32:32.139Z,475
2019-03-19T10:33:32.123Z,495
2019-03-19T10:34:32.117Z,505
2019-03-19T10:35:32.065Z,495
2019-03-19T10:36:32.034Z,495
2019-03-19T10:37:32.006Z,475
2019-03-19T10:38:31.975Z,465
2019-03-19T10:39:31.955Z,455
2019-03-19T10:40:31.699Z,455
2019-03-19T10:41:31.899Z,465
2019-03-19T10:42:31.912Z,470
2019-03-19T10:43:31.845Z,470
2019-03-19T10:44:31.812Z,470
2019-03-19T10:45:31.826Z,475
2019-03-19T10:46:31.785Z,455
2019-03-19T10:47:31.738Z,415
2019-03-19T10:48:31.713Z,420
2019-03-19T10:49:31.684Z,425
2019-03-19T10:50:31.668Z,440
2019-03-19T10:51:31.643Z,470
2019-03-19T10:52:31.370Z,500
2019-03-19T10:53:31.579Z,545
2019-03-19T10:54:31.547Z,590
2019-03-19T10:55:31.295Z,610
2019-03-19T10:56:31.494Z,615
2019-03-19T10:57:31.232Z,630
2019-03-19T10:58:31.444Z,640
2019-03-19T10:59:31.411Z,650
2019-03-19T11:00:31.409Z,665
2019-03-19T11:01:31.362Z,670
2019-03-19T11:02:31.098Z,655
2019-03-19T11:03:31.309Z,650
2019-03-19T11:04:30.670Z,640
2019-03-19T11:05:31.321Z,615
2019-03-19T11:06:31.274Z,630
2019-03-19T11:07:31.215Z,665
2019-03-19T11:08:31.201Z,670
2019-03-19T11:09:31.162Z,655
2019-03-19T11:10:32.341Z,655
2019-03-19T11:11:31.105Z,655
2019-03-19T11:12:31.192Z,635
2019-03-19T11:13:31.092Z,600
2019-03-19T11:14:31.711Z,600
2019-03-19T11:15:31.725Z,610
2019-03-19T11:16:30.741Z,620
2019-03-19T11:17:33.220Z,630
2019-03-19T11:18:30.936Z,645
2019-03-19T11:19:30.904Z,670
2019-03-19T11:20:30.901Z,700
2019-03-19T11:21:30.849Z,710
2019-03-19T11:22:33.489Z,700
2019-03-19T11:23:30.804Z,685
2019-03-19T11:24:30.785Z,700
2019-03-19T11:25:30.769Z,665
2019-03-19T11:26:30.502Z,600
2019-03-19T11:27:30.245Z,550
2019-03-19T11:28:30.700Z,530
2019-03-19T11:29:30.692Z,515
2019-03-19T11:30:30.711Z,525
2019-03-19T11:31:30.620Z,530
2019-03-19T11:32:30.609Z,525
2019-03-19T11:33:30.565Z,510
2019-03-19T11:34:30.544Z,490
2019-03-19T11:35:30.518Z,475
2019-03-19T11:36:30.494Z,470
2019-03-19T11:37:30.483Z,470
2019-03-19T11:38:30.451Z,470
2019-03-19T11:39:30.416Z,470
2019-03-19T11:40:32.836Z,465
2019-03-19T11:41:30.373Z,470
2019-03-19T11:42:30.345Z,475
2019-03-19T11:43:30.310Z,475
2019-03-19T11:44:30.300Z,480
2019-03-19T11:45:30.038Z,490
2019-03-19T11:46:30.260Z,515
2019-03-19T11:47:30.224Z,530
2019-03-19T11:48:30.276Z,535
2019-03-19T11:49:30.173Z,550
2019-03-19T11:50:33.450Z,580
2019-03-19T11:51:32.514Z,585
2019-03-19T11:52:33.661Z,580
2019-03-19T11:53:31.830Z,565
2019-03-19T11:54:30.285Z,575
2019-03-19T11:55:30.154Z,595
2019-03-19T11:56:32.548Z,600
2019-03-19T11:57:30.988Z,580
2019-03-19T11:58:29.617Z,550
2019-03-19T11:59:30.494Z,550
2019-03-19T12:00:30.079Z,565
2019-03-19T12:01:29.882Z,585
2019-03-19T12:02:35.536Z,610
2019-03-19T12:03:29.838Z,615
2019-03-19T12:04:29.814Z,600
2019-03-19T12:05:29.793Z,620
2019-03-19T12:06:29.758Z,610
2019-03-19T12:07:29.740Z,640
2019-03-19T12:08:29.713Z,640
2019-03-19T12:09:29.685Z,640
2019-03-19T12:10:29.713Z,650
2019-03-19T12:11:29.664Z,660
2019-03-19T12:12:29.404Z,665
2019-03-19T12:13:29.590Z,680
2019-03-19T12:14:30.627Z,690
2019-03-19T12:15:29.305Z,690
2019-03-19T12:16:29.527Z,670
2019-03-19T12:17:29.492Z,655
2019-03-19T12:18:29.522Z,625
2019-03-19T12:19:29.471Z,590
2019-03-19T12:20:30.362Z,575
2019-03-19T12:21:29.400Z,545
2019-03-19T12:22:29.139Z,550
2019-03-19T12:23:29.346Z,530
2019-03-19T12:24:29.329Z,530
2019-03-19T12:25:31.167Z,535
2019-03-19T12:26:29.278Z,535
2019-03-19T12:27:30.566Z,525
2019-03-19T12:28:39.173Z,515
2019-03-19T12:29:29.372Z,515
2019-03-19T12:30:33.406Z,525
2019-03-19T12:31:29.218Z,525
2019-03-19T12:32:29.137Z,515
2019-03-19T12:33:29.116Z,500
2019-03-19T12:34:29.098Z,495
2019-03-19T12:35:30.706Z,495
2019-03-19T12:36:28.560Z,500
2019-03-19T12:37:29.012Z,515
2019-03-19T12:38:28.984Z,535
2019-03-19T12:39:28.964Z,600
2019-03-19T12:40:39.043Z,655
2019-03-19T12:41:28.915Z,655
2019-03-19T12:42:28.947Z,660
2019-03-19T12:43:28.878Z,665
2019-03-19T12:44:28.841Z,655
2019-03-19T12:45:28.825Z,645
2019-03-19T12:46:28.800Z,645
2019-03-19T12:47:28.775Z,645
2019-03-19T12:48:28.806Z,605
2019-03-19T12:49:28.718Z,590
2019-03-19T12:50:28.712Z,570
2019-03-19T12:51:28.669Z,555
2019-03-19T12:52:28.649Z,545
2019-03-19T12:53:28.618Z,505
2019-03-19T12:54:28.603Z,460
2019-03-19T12:55:28.597Z,460
2019-03-19T12:56:28.553Z,490
2019-03-19T12:57:28.595Z,500
2019-03-19T12:58:28.510Z,530
2019-03-19T12:59:29.670Z,505
2019-03-19T13:00:40.592Z,525
2019-03-19T13:01:31.072Z,545
2019-03-19T13:02:28.422Z,560
2019-03-19T13:03:28.387Z,620
2019-03-19T13:04:28.438Z,640
2019-03-19T13:05:29.750Z,640
2019-03-19T13:06:28.094Z,645
2019-03-19T13:07:28.307Z,660
2019-03-19T13:08:29.872Z,660
2019-03-19T13:09:28.269Z,630
2019-03-19T13:10:28.226Z,620
2019-03-19T13:11:28.201Z,615
2019-03-19T13:12:28.186Z,620
2019-03-19T13:13:28.513Z,615
2019-03-19T13:14:28.129Z,610
2019-03-19T13:15:29.317Z,620
2019-03-19T13:16:28.075Z,635
2019-03-19T13:17:28.115Z,630
2019-03-19T13:18:28.029Z,615
2019-03-19T13:19:28.015Z,580
2019-03-19T13:20:27.995Z,550
2019-03-19T13:21:27.999Z,555
2019-03-19T13:22:27.972Z,570
2019-03-19T13:23:28.755Z,575
2019-03-19T13:24:27.901Z,570
2019-03-19T13:25:27.872Z,605
2019-03-19T13:26:27.845Z,640
2019-03-19T13:27:30.190Z,650
2019-03-19T13:28:27.879Z,620
2019-03-19T13:29:27.793Z,605
2019-03-19T13:30:27.800Z,570
2019-03-19T13:31:27.728Z,560
2019-03-19T13:32:28.358Z,570
2019-03-19T13:33:27.688Z,590
2019-03-19T13:34:27.659Z,570
2019-03-19T13:35:29.350Z,590
2019-03-19T13:36:30.055Z,600
2019-03-19T13:37:30.130Z,610
2019-03-19T13:38:27.564Z,610
2019-03-19T13:39:27.541Z,595
2019-03-19T13:40:27.531Z,530
2019-03-19T13:41:27.497Z,525
2019-03-19T13:42:27.475Z,530
2019-03-19T13:43:27.489Z,550
2019-03-19T13:44:28.693Z,570
2019-03-19T13:45:27.427Z,565
2019-03-19T13:46:27.486Z,590
2019-03-19T13:47:27.353Z,595
2019-03-19T13:48:27.328Z,610
2019-03-19T13:49:27.314Z,600
2019-03-19T13:50:27.302Z,580
2019-03-19T13:51:27.276Z,535
2019-03-19T13:52:27.243Z,505
2019-03-19T13:53:27.217Z,590
2019-03-19T13:54:27.200Z,590
2019-03-19T13:55:27.178Z,605
2019-03-19T13:56:27.566Z,595
2019-03-19T13:57:27.127Z,610
2019-03-19T13:58:29.591Z,625
2019-03-19T13:59:27.411Z,620
2019-03-19T14:00:27.063Z,615
2019-03-19T14:01:27.035Z,595
2019-03-19T14:02:27.058Z,585
2019-03-19T14:03:26.999Z,575
2019-03-19T14:04:28.240Z,560
2019-03-19T14:05:26.959Z,565
2019-03-19T14:06:27.786Z,565
2019-03-19T14:07:28.279Z,575
2019-03-19T14:08:27.638Z,590
2019-03-19T14:09:26.857Z,625
2019-03-19T14:10:26.847Z,625